Latest Weather Observations for Adelaide

IDS60901

Issued at 5:25 pm CST Friday 19 September 2014 (issued every 10 minutes, with the page automatically refreshed every 10 minutes)

About weather observations | Map of Adelaide area stations | Latest observations for Adelaide area | Other Formats
Station Details ID: 023090 Name: KENT TOWN Lat: -34.92 Lon: 138.62 Height: 48.0 m
Data from the previous 72 hours. | See also: Recent months at Adelaide
Date/Time
CST
Tmp

°C
App
Tmp
°C
Dew
Point
°C
Rel
Hum
%
Delta-T

°C
Wind Press
QNH
hPa
Press
MSL
hPa
Rain
since
9 am
mm
Dir
 
Spd
km/h
Gust
km/h
Spd
kts
Gust
kts
19/05:00pm 18.4 14.5 1.4 32 7.6 ENE 11 17 6 9 1022.8 - 0.0
19/04:30pm 18.5 15.3 0.5 29 7.9 N 7 11 4 6 1022.7 - 0.0
19/04:00pm 18.7 14.7 0.5 29 8.0 NNE 11 17 6 9 1022.8 - 0.0
19/03:30pm 19.2 16.1 1.1 29 8.1 NW 7 17 4 9 1022.9 - 0.0
19/03:00pm 19.1 14.4 0.6 29 8.2 NE 15 24 8 13 1023.1 1023.2 0.0
19/02:30pm 18.8 14.3 0.0 28 8.2 NNE 13 26 7 14 1023.4 - 0.0
19/02:00pm 18.9 15.2 0.2 28 8.2 NNW 9 20 5 11 1023.5 - 0.0
19/01:30pm 18.3 13.9 0.5 30 7.8 N 13 22 7 12 1023.8 - 0.0
19/01:00pm 17.6 13.2 0.3 31 7.5 NNE 13 19 7 10 1024.2 - 0.0
19/12:30pm 17.4 13.5 1.0 33 7.2 ENE 11 22 6 12 1024.5 - 0.0
19/12:00pm 16.8 13.2 0.3 32 7.1 ENE 9 17 5 9 1025.0 1025.1 0.0
19/11:30am 17.7 13.5 1.5 33 7.2 NE 13 24 7 13 1025.2 - 0.0
19/11:00am 17.0 13.1 1.4 35 6.9 NNE 11 19 6 10 1025.5 - 0.0
19/10:30am 16.9 12.5 2.8 39 6.4 ENE 15 22 8 12 1025.9 - 0.0
19/10:00am 16.1 12.3 1.5 37 6.4 ENE 11 20 6 11 1026.1 - 0.0
19/09:30am 15.6 11.6 2.9 42 5.7 ENE 13 20 7 11 1026.3 - 0.0
19/09:00am 14.7 10.0 3.4 46 5.1 ENE 17 26 9 14 1026.3 1026.4 2.0
19/08:30am 14.1 10.2 3.4 48 4.8 ENE 13 24 7 13 1026.1 - 2.0
19/08:00am 13.1 9.6 3.7 53 4.2 ENE 11 20 6 11 1025.9 - 2.0
19/07:30am 11.6 8.5 3.7 58 3.5 NE 9 17 5 9 1025.7 - 2.0
19/07:00am 10.5 7.1 4.2 65 2.8 ENE 11 19 6 10 1025.6 - 2.0
19/06:30am 9.4 6.0 3.9 68 2.4 NE 11 15 6 8 1025.4 - 2.0
19/06:00am 9.0 6.4 4.2 72 2.1 N 7 11 4 6 1025.0 1025.1 2.0
19/05:30am 9.2 6.6 4.4 72 2.1 N 7 9 4 5 1024.9 - 2.0
19/05:00am 9.8 6.9 4.4 69 2.4 ESE 9 15 5 8 1024.5 - 2.0
19/04:30am 9.8 6.5 4.4 69 2.4 ESE 11 19 6 10 1024.5 - 2.0
19/04:00am 9.6 7.0 4.4 70 2.3 ESE 7 20 4 11 1024.5 - 2.0
19/03:30am 9.4 7.5 4.9 73 2.0 NE 4 9 2 5 1024.7 - 2.0
19/03:00am 9.7 6.5 5.0 72 2.1 ESE 11 20 6 11 1024.5 1024.6 2.0
19/02:30am 9.9 7.0 4.8 70 2.3 ESE 9 20 5 11 1024.7 - 2.0
19/02:00am 10.0 6.8 4.9 70 2.3 ESE 11 20 6 11 1025.0 - 2.0
19/01:30am 9.8 7.3 4.9 71 2.2 E 7 15 4 8 1025.1 - 2.0
19/01:00am 9.6 7.3 4.6 71 2.2 SSW 6 15 3 8 1025.3 - 2.0
19/12:30am 10.0 7.2 5.1 71 2.2 SE 9 17 5 9 1025.4 - 2.0
19/12:00am 10.3 7.0 4.7 68 2.5 ESE 11 20 6 11 1025.6 1025.7 2.0
 
Date/Time
CST
Tmp

°C
App
Tmp
°C
Dew
Point
°C
Rel
Hum
%
Delta-T

°C
Wind Press
QNH
hPa
Press
MSL
hPa
Rain
since
9 am
mm
Dir
 
Spd
km/h
Gust
km/h
Spd
kts
Gust
kts
18/11:30pm 10.5 6.2 5.2 70 2.4 ESE 17 30 9 16 1025.7 - 2.0
18/11:00pm 10.4 6.2 5.6 72 2.2 SE 17 26 9 14 1025.7 - 2.0
18/10:30pm 10.3 6.8 5.5 72 2.2 ESE 13 26 7 14 1026.0 - 2.0
18/10:00pm 9.7 7.5 5.5 75 1.9 SSE 6 9 3 5 1026.1 - 2.0
18/09:30pm 9.8 7.5 5.6 75 1.9 SSE 7 11 4 6 1026.4 - 2.0
18/09:00pm 10.3 7.5 5.2 70 2.3 SE 9 15 5 8 1026.5 1026.6 2.0
18/08:30pm 10.2 7.6 6.1 76 1.9 SSE 9 13 5 7 1026.5 - 2.0
18/08:00pm 10.5 7.9 6.2 75 2.0 SE 9 15 5 8 1026.5 - 2.0
18/07:30pm 10.4 8.6 7.2 80 1.5 SSE 6 11 3 6 1026.2 - 2.0
18/07:00pm 11.0 8.6 6.8 75 2.0 S 9 15 5 8 1025.9 - 2.0
18/06:30pm 11.3 9.7 8.0 80 1.6 S 6 9 3 5 1025.8 - 2.0
18/06:00pm 11.6 9.6 8.8 83 1.4 SSE 9 11 5 6 1025.4 1025.5 2.0
18/05:30pm 11.5 9.2 8.9 84 1.3 S 11 15 6 8 1025.3 - 2.0
18/05:00pm 11.9 9.1 8.7 81 1.6 S 13 20 7 11 1025.3 - 1.8
18/04:30pm 13.0 9.5 7.0 67 2.9 SSW 15 22 8 12 1025.1 - 1.8
18/04:00pm 14.2 11.3 6.7 60 3.6 SSW 11 15 6 8 1024.8 - 1.8
18/03:30pm 13.8 11.5 7.5 66 3.1 SW 9 15 5 8 1024.9 - 1.8
18/03:00pm 12.5 10.0 8.0 74 2.2 WSW 11 17 6 9 1025.1 1025.2 1.8
18/02:30pm 11.7 9.3 8.7 82 1.5 WSW 11 15 6 8 1025.3 - 1.8
18/02:00pm 11.4 9.0 8.8 84 1.3 W 11 15 6 8 1025.4 - 1.8
18/01:30pm 11.2 8.9 9.0 86 1.1 SW 11 17 6 9 1025.6 - 1.4
18/01:00pm 11.2 9.1 9.6 90 0.8 WSW 11 17 6 9 1025.6 - 1.4
18/12:30pm 13.2 10.1 5.7 60 3.5 N 11 17 6 9 1025.7 - 0.0
18/12:00pm 13.3 11.0 5.9 61 3.5 SE 7 13 4 7 1026.1 1026.2 0.0
18/11:30am 12.9 10.4 4.8 58 3.7 SSE 7 17 4 9 1026.3 - 0.0
18/11:00am 12.6 9.5 5.7 63 3.2 S 11 15 6 8 1026.4 - 0.0
18/10:30am 12.8 9.7 5.7 62 3.3 SSW 11 17 6 9 1026.6 - 0.0
18/10:00am 12.9 10.1 5.1 59 3.6 WSW 9 15 5 8 1026.8 - 0.0
18/09:30am 13.1 10.2 4.8 57 3.8 SW 9 13 5 7 1027.2 - 0.0
18/09:00am 12.1 9.8 4.9 61 3.3 SW 6 9 3 5 1027.3 1027.4 0.0
18/08:30am 11.3 10.2 4.9 65 2.9 CALM 0 2 0 1 1027.0 - 0.0
18/08:00am 9.2 8.1 4.9 74 1.9 CALM 0 0 0 0 1026.8 - 0.0
18/07:30am 8.2 6.7 4.8 79 1.5 N 2 6 1 3 1026.6 - 0.0
18/07:00am 7.5 5.9 4.3 80 1.4 NNE 2 6 1 3 1026.3 - 0.0
18/06:30am 6.6 5.4 4.5 86 0.9 CALM 0 0 0 0 1025.8 - 0.0
18/06:00am 6.3 5.0 3.9 85 1.0 CALM 0 0 0 0 1025.5 1025.6 0.0
18/05:30am 6.1 4.8 4.0 86 0.9 CALM 0 0 0 0 1025.4 - 0.0
18/05:00am 5.8 3.7 3.7 86 0.9 N 4 7 2 4 1025.1 - 0.0
18/04:30am 5.8 4.4 3.7 86 0.9 CALM 0 0 0 0 1025.1 - 0.0
18/04:00am 5.9 4.5 3.8 86 0.9 CALM 0 0 0 0 1024.9 - 0.0
18/03:30am 6.3 4.9 3.4 82 1.2 CALM 0 2 0 1 1025.0 - 0.0
18/03:00am 6.5 5.1 3.4 80 1.3 CALM 0 6 0 3 1025.1 1025.2 0.0
18/02:30am 6.9 5.0 3.1 77 1.6 NE 2 7 1 4 1025.2 - 0.0
18/02:00am 6.5 5.1 3.4 80 1.3 CALM 0 4 0 2 1025.5 - 0.0
18/01:30am 6.7 4.5 3.4 79 1.4 NNE 4 7 2 4 1025.6 - 0.0
18/01:00am 7.0 4.4 3.2 77 1.6 ESE 6 6 3 3 1025.5 - 0.0
18/12:30am 7.0 5.5 3.2 77 1.6 CALM 0 0 0 0 1025.9 - 0.0
18/12:00am 7.3 5.9 3.3 76 1.7 CALM 0 0 0 0 1025.6 1025.7 0.0
 
Date/Time
CST
Tmp

°C
App
Tmp
°C
Dew
Point
°C
Rel
Hum
%
Delta-T

°C
Wind Press
QNH
hPa
Press
MSL
hPa
Rain
since
9 am
mm
Dir
 
Spd
km/h
Gust
km/h
Spd
kts
Gust
kts
17/11:30pm 7.5 6.1 3.5 76 1.7 CALM 0 0 0 0 1025.5 - 0.0
17/11:00pm 7.9 6.4 3.2 72 2.0 CALM 0 6 0 3 1025.4 - 0.0
17/10:30pm 8.6 7.1 2.9 67 2.4 CALM 0 0 0 0 1025.3 - 0.0
17/10:00pm 9.0 6.7 2.6 64 2.7 S 4 7 2 4 1025.3 - 0.0
17/09:30pm 9.6 7.7 2.8 62 2.9 S 2 7 1 4 1025.3 - 0.0
17/09:00pm 10.2 6.4 1.8 56 3.5 S 11 19 6 10 1025.1 1025.2 0.0
17/08:30pm 10.5 7.2 2.2 56 3.5 S 9 15 5 8 1024.9 - 0.0
17/08:00pm 10.8 7.6 3.2 59 3.3 S 9 15 5 8 1024.6 - 0.0
17/07:30pm 11.4 7.5 3.4 58 3.5 S 13 17 7 9 1024.3 - 0.0
17/07:00pm 12.1 8.6 3.5 55 3.8 S 11 15 6 8 1023.9 - 0.0
17/06:30pm 12.7 9.0 2.3 49 4.5 S 11 17 6 9 1023.5 - 0.0
17/06:00pm 13.3 9.2 2.0 46 4.9 SSW 13 20 7 11 1023.2 1023.3 0.0
17/05:30pm 13.9 9.3 1.6 43 5.3 SW 15 22 8 12 1023.1 - 0.0
17/05:00pm 14.8 9.6 2.7 44 5.4 SW 19 28 10 15 1022.9 - 0.0
17/04:30pm 15.3 9.9 2.5 42 5.7 SW 20 28 11 15 1022.8 - 0.0
17/04:00pm 15.8 10.5 1.7 38 6.2 SSW 19 30 10 16 1022.4 - 0.0
17/03:30pm 15.9 10.4 1.6 38 6.3 WSW 20 30 11 16 1022.2 - 0.0
17/03:00pm 16.2 10.9 1.7 37 6.4 WSW 19 30 10 16 1021.9 1022.0 0.0
17/02:30pm 15.7 9.9 2.2 40 6.0 WSW 22 33 12 18 1021.9 - 0.0
17/02:00pm 16.3 9.1 3.1 41 6.0 W 30 39 16 21 1022.1 - 0.0
17/01:30pm 16.0 11.0 4.7 47 5.3 SW 20 32 11 17 1022.1 - 0.0
17/01:00pm 16.0 10.9 5.8 50 4.9 WSW 22 35 12 19 1022.2 - 0.0
17/12:30pm 16.0 11.4 5.8 50 4.9 WSW 19 33 10 18 1022.2 - 0.0
17/12:00pm 15.8 12.1 6.1 52 4.7 WSW 15 26 8 14 1022.4 1022.5 0.0
17/11:30am 15.6 11.1 6.0 53 4.6 W 19 26 10 14 1022.3 - 0.0
17/11:00am 15.4 10.5 6.8 56 4.2 W 22 33 12 18 1022.2 - 0.0
17/10:30am 14.8 10.8 6.8 58 3.9 SSW 17 26 9 14 1022.3 - 0.0
17/10:00am 14.5 10.6 7.1 61 3.6 SW 17 30 9 16 1022.3 - 0.0
17/09:30am 13.1 9.9 8.3 72 2.4 SW 15 24 8 13 1022.3 - 0.0
17/09:00am 13.0 9.1 8.6 74 2.2 WSW 19 30 10 16 1021.9 1022.0 2.4
17/08:30am 12.6 10.8 9.6 82 1.5 SW 9 15 5 8 1021.6 - 2.4
17/08:00am 12.2 10.9 10.0 86 1.1 W 7 9 4 5 1021.4 - 2.4
17/07:30am 11.3 11.0 10.1 92 0.6 S 2 9 1 5 1021.0 - 2.4
17/07:00am 10.9 10.9 9.9 93 0.5 CALM 0 0 0 0 1020.6 - 1.6
17/06:30am 9.7 9.5 8.9 95 0.4 CALM 0 0 0 0 1020.2 - 1.6
17/06:00am 10.1 10.0 9.5 96 0.3 CALM 0 0 0 0 1019.9 1020.0 1.6
17/05:30am 10.2 9.3 9.4 95 0.4 S 4 6 2 3 1019.6 - 1.6
17/05:00am 10.6 9.2 9.4 92 0.6 S 7 11 4 6 1019.4 - 1.6
17/04:30am 10.7 9.0 9.7 93 0.5 WSW 9 19 5 10 1019.2 - 1.6
17/04:00am 10.7 8.1 9.3 91 0.7 WSW 13 19 7 10 1019.1 - 1.4
17/03:30am 12.2 9.4 7.0 70 2.5 WSW 11 15 6 8 1018.8 - 0.2
17/03:00am 12.0 8.7 6.3 68 2.7 WSW 13 19 7 10 1018.9 1019.0 0.2
17/02:30am 12.4 9.0 5.8 64 3.1 SW 13 20 7 11 1019.0 - 0.2
17/02:00am 12.6 8.9 4.7 58 3.6 SW 13 22 7 12 1019.1 - 0.2
17/01:30am 12.7 8.6 4.1 56 3.9 WSW 15 24 8 13 1019.4 - 0.2
17/01:00am 12.6 9.2 3.9 55 3.9 WSW 11 20 6 11 1019.5 - 0.2
17/12:30am 12.6 8.8 3.7 54 4.0 WSW 13 24 7 13 1019.6 - 0.2
17/12:00am 12.5 8.6 3.5 54 4.0 WSW 13 24 7 13 1019.6 1019.7 0.2
 
Date/Time
CST
Tmp

°C
App
Tmp
°C
Dew
Point
°C
Rel
Hum
%
Delta-T

°C
Wind Press
QNH
hPa
Press
MSL
hPa
Rain
since
9 am
mm
Dir
 
Spd
km/h
Gust
km/h
Spd
kts
Gust
kts
16/11:30pm 12.7 7.5 2.6 50 4.4 WSW 19 28 10 15 1019.8 - 0.2
16/11:00pm 12.8 9.4 3.9 54 4.0 WSW 11 22 6 12 1019.8 - 0.2
16/10:30pm 12.7 8.1 3.8 54 4.0 WSW 17 26 9 14 1019.6 - 0.2
16/10:00pm 12.7 8.3 4.9 59 3.6 SW 17 30 9 16 1019.7 - 0.2
16/09:30pm 12.8 10.0 7.0 68 2.8 SW 11 19 6 10 1019.4 - 0.2
16/09:00pm 12.8 9.8 7.5 70 2.6 WSW 13 24 7 13 1019.3 1019.4 0.2
16/08:30pm 13.1 8.5 5.6 60 3.5 W 19 28 10 15 1019.0 - 0.2
16/08:00pm 13.1 9.4 6.4 64 3.2 W 15 26 8 14 1018.8 - 0.2
16/07:30pm 13.1 9.2 7.1 67 2.9 WSW 17 30 9 16 1018.7 - 0.2
16/07:00pm 13.5 9.1 6.6 63 3.3 WSW 19 35 10 19 1018.2 - 0.2
16/06:30pm 13.8 10.3 7.0 63 3.3 WSW 15 28 8 15 1017.9 - 0.2
16/06:00pm 14.0 9.8 7.5 65 3.2 WSW 19 30 10 16 1017.7 1017.8 0.2
16/05:30pm 14.3 10.3 8.1 66 3.1 W 19 28 10 15 1017.6 - 0.2

Latest Capital City Observations: Canberra | Sydney | Melbourne | Brisbane | Adelaide | Perth | Hobart | Darwin

Other Formats:

Comma delimited format used in spreadsheet applications
http://www.bom.gov.au/fwo/IDS60901/IDS60901.94675.axf

JavaScript Object Notation format (JSON) in row-major order
http://www.bom.gov.au/fwo/IDS60901/IDS60901.94675.json